Time;durP1;ratioP1;P1;durP2;ratioP2;P2;SDS_P1;SDS_P2;PMS_P1;PMS_P2;Temp;Humidity;BMP_temperature;BMP_pressure;BME280_temperature;BME280_humidity;BME280_pressure;Samples;Min_cycle;Max_cycle;Signal;HPM_P1;HPM_P2
2021/09/15 00:01:46;;;;;;;13.45;9.63;;;14.50;99.90;;;;;;4996036;28;20441;-85
2021/09/15 00:04:12;;;;;;;10.20;9.13;;;14.50;99.90;;;;;;5013012;28;20045;-85
2021/09/15 00:06:39;;;;;;;11.48;8.93;;;14.60;99.90;;;;;;5012769;28;20054;-84
2021/09/15 00:09:07;;;;;;;9.75;8.75;;;14.60;99.90;;;;;;4995500;28;20054;-84
2021/09/15 00:11:34;;;;;;;10.15;8.90;;;14.60;99.90;;;;;;5013143;28;20127;-85
2021/09/15 00:14:01;;;;;;;11.52;9.35;;;14.60;99.90;;;;;;5013061;28;20406;-85
2021/09/15 00:16:27;;;;;;;11.50;9.95;;;14.60;99.90;;;;;;5012829;28;20061;-85
2021/09/15 00:18:54;;;;;;;14.18;10.00;;;14.60;99.90;;;;;;4995667;28;20050;-84
2021/09/15 00:21:21;;;;;;;10.48;9.25;;;14.60;99.90;;;;;;4995974;28;20081;-85
2021/09/15 00:23:48;;;;;;;10.27;9.07;;;14.60;99.90;;;;;;4995565;28;20425;-85
2021/09/15 00:26:14;;;;;;;10.45;9.30;;;14.60;99.90;;;;;;4995341;28;20053;-85
2021/09/15 00:28:41;;;;;;;12.93;9.43;;;14.70;99.90;;;;;;5013052;28;20042;-85
2021/09/15 00:31:08;;;;;;;13.10;9.15;;;14.80;99.90;;;;;;4995459;28;20076;-85
2021/09/15 00:33:34;;;;;;;9.82;8.45;;;14.70;99.90;;;;;;4995771;28;20506;-85
2021/09/15 00:36:01;;;;;;;9.77;8.70;;;14.80;99.90;;;;;;5012913;28;20056;-85
2021/09/15 00:38:28;;;;;;;11.85;9.07;;;14.80;99.90;;;;;;4995208;28;20076;-85
2021/09/15 00:40:56;;;;;;;14.05;8.82;;;14.80;99.90;;;;;;4995578;28;20042;-85
2021/09/15 00:43:23;;;;;;;9.82;8.93;;;14.80;99.90;;;;;;4995527;28;20491;-85
2021/09/15 00:45:50;;;;;;;12.02;8.63;;;14.80;99.90;;;;;;5012604;28;20046;-84
2021/09/15 00:48:17;;;;;;;10.02;9.13;;;14.80;99.90;;;;;;5012776;28;20418;-85
2021/09/15 00:50:44;;;;;;;10.75;9.00;;;14.80;99.90;;;;;;4995699;28;20046;-85
2021/09/15 00:53:11;;;;;;;16.17;9.27;;;14.80;99.90;;;;;;5012827;28;20054;-85
2021/09/15 00:55:38;;;;;;;11.23;8.48;;;14.80;99.90;;;;;;5012595;28;20046;-85
2021/09/15 00:58:04;;;;;;;9.43;8.43;;;14.70;99.90;;;;;;5012354;28;20061;-85
2021/09/15 01:00:31;;;;;;;10.25;8.45;;;14.80;99.90;;;;;;4995233;28;20081;-85
2021/09/15 01:02:58;;;;;;;12.45;8.75;;;14.80;99.90;;;;;;4996433;28;20049;-85
2021/09/15 01:05:25;;;;;;;9.40;7.90;;;14.80;99.90;;;;;;5016668;28;20042;-85
2021/09/15 01:07:54;;;;;;;10.15;9.15;;;14.80;99.90;;;;;;5016294;28;20054;-85
2021/09/15 01:10:21;;;;;;;12.05;8.82;;;14.80;99.90;;;;;;5016487;28;20045;-85
2021/09/15 01:12:48;;;;;;;11.65;10.15;;;14.80;99.90;;;;;;4999009;28;20144;-85
2021/09/15 01:15:14;;;;;;;12.88;8.18;;;14.80;99.90;;;;;;5015975;28;20052;-85
2021/09/15 01:17:41;;;;;;;12.93;8.55;;;14.80;99.90;;;;;;4999332;28;20569;-85
2021/09/15 01:20:09;;;;;;;9.10;8.20;;;14.90;99.90;;;;;;4998644;28;20056;-85
2021/09/15 01:22:35;;;;;;;11.63;8.40;;;14.90;99.90;;;;;;4998570;28;20052;-85
2021/09/15 01:25:02;;;;;;;14.45;8.93;;;14.90;99.90;;;;;;5015670;28;20061;-84
2021/09/15 01:27:29;;;;;;;9.25;7.97;;;14.90;99.90;;;;;;5015922;28;20446;-85
2021/09/15 01:29:56;;;;;;;11.00;7.28;;;15.00;99.90;;;;;;5016178;28;20278;-85
2021/09/15 01:32:23;;;;;;;10.88;8.00;;;15.00;99.90;;;;;;4999152;28;20060;-85
2021/09/15 01:34:52;;;;;;;15.80;8.05;;;15.00;99.90;;;;;;5016156;28;20049;-85
2021/09/15 01:37:19;;;;;;;8.38;7.20;;;15.10;99.90;;;;;;4998721;28;20053;-85
2021/09/15 01:39:46;;;;;;;8.52;7.32;;;15.10;99.90;;;;;;5016131;28;20056;-85
2021/09/15 01:42:13;;;;;;;11.77;7.50;;;15.10;99.90;;;;;;4998567;28;20414;-84
2021/09/15 01:44:43;;;;;;;13.07;7.25;;;15.10;99.90;;;;;;4998653;28;20088;-85
2021/09/15 01:47:12;;;;;;;8.68;7.43;;;15.10;99.90;;;;;;5015755;28;20069;-85
2021/09/15 01:49:41;;;;;;;9.32;7.07;;;15.10;99.90;;;;;;4998805;28;20085;-85
2021/09/15 01:52:10;;;;;;;8.10;7.28;;;15.10;99.90;;;;;;4998789;28;20140;-84
2021/09/15 01:54:38;;;;;;;8.50;7.60;;;15.10;99.90;;;;;;5015695;28;20499;-85
2021/09/15 01:57:05;;;;;;;9.60;7.65;;;15.00;99.90;;;;;;4998338;28;20048;-85
2021/09/15 01:59:32;;;;;;;8.13;7.43;;;15.00;99.90;;;;;;4998372;28;20123;-84
2021/09/15 02:01:59;;;;;;;12.75;7.43;;;15.00;99.90;;;;;;5016167;28;20046;-85
2021/09/15 02:04:25;;;;;;;10.27;7.13;;;15.00;99.90;;;;;;5015349;28;20050;-83
2021/09/15 02:06:52;;;;;;;8.45;7.22;;;15.00;99.90;;;;;;4998084;28;20068;-85
2021/09/15 02:09:19;;;;;;;8.55;7.05;;;15.10;99.90;;;;;;4998243;28;20048;-85
2021/09/15 02:11:46;;;;;;;9.38;8.20;;;15.10;99.90;;;;;;4998330;28;20498;-85
2021/09/15 02:14:13;;;;;;;10.38;8.13;;;15.10;99.90;;;;;;5015129;28;20160;-86
2021/09/15 02:16:40;;;;;;;10.32;8.43;;;15.00;99.90;;;;;;4998195;28;20050;-85
2021/09/15 02:19:07;;;;;;;8.25;7.38;;;15.00;99.90;;;;;;4997795;28;20060;-83
2021/09/15 02:21:34;;;;;;;9.40;7.85;;;15.00;99.90;;;;;;4997768;28;20512;-85
2021/09/15 02:24:01;;;;;;;9.65;7.50;;;15.00;99.90;;;;;;4998204;28;20525;-85
2021/09/15 02:26:31;;;;;;;7.93;7.22;;;15.10;99.90;;;;;;5014961;28;20041;-85
2021/09/15 02:28:59;;;;;;;11.43;8.07;;;15.20;99.90;;;;;;5014888;28;20514;-85
2021/09/15 02:31:26;;;;;;;8.32;6.60;;;15.30;99.90;;;;;;4997832;28;20042;-85
2021/09/15 02:33:53;;;;;;;7.82;6.97;;;15.30;99.90;;;;;;4997838;28;20451;-83
2021/09/15 02:36:21;;;;;;;8.85;6.80;;;15.30;99.90;;;;;;4997311;28;20050;-85
2021/09/15 02:38:48;;;;;;;7.82;6.70;;;15.20;99.90;;;;;;4997542;28;20490;-83
2021/09/15 02:41:15;;;;;;;11.93;7.22;;;15.30;99.90;;;;;;4997635;28;20050;-84
2021/09/15 02:43:42;;;;;;;7.72;7.03;;;15.20;99.90;;;;;;5014939;28;20050;-85
2021/09/15 02:46:09;;;;;;;7.32;6.55;;;15.20;99.90;;;;;;5014625;28;20391;-85
2021/09/15 02:48:36;;;;;;;10.73;7.55;;;15.40;99.90;;;;;;4997471;28;20064;-86
2021/09/15 02:51:03;;;;;;;11.57;7.18;;;15.40;99.90;;;;;;4997410;28;20058;-83
2021/09/15 02:53:30;;;;;;;10.32;6.50;;;15.40;99.90;;;;;;5014597;28;20562;-85
2021/09/15 02:55:56;;;;;;;9.07;7.80;;;15.40;99.90;;;;;;4997316;28;20557;-83
2021/09/15 02:58:23;;;;;;;8.60;7.43;;;15.40;99.90;;;;;;4997141;28;20054;-83
2021/09/15 03:00:50;;;;;;;10.15;6.78;;;15.40;99.90;;;;;;4997428;28;20084;-85
2021/09/15 03:03:17;;;;;;;10.80;7.35;;;15.40;99.90;;;;;;5014766;28;20038;-83
2021/09/15 03:05:43;;;;;;;9.27;7.40;;;15.40;99.90;;;;;;4997177;28;20053;-85
2021/09/15 03:08:10;;;;;;;9.95;7.43;;;15.40;99.90;;;;;;4996839;28;20081;-83
2021/09/15 03:10:37;;;;;;;12.73;7.63;;;15.40;99.90;;;;;;4997123;28;20054;-85
2021/09/15 03:13:03;;;;;;;9.20;7.15;;;15.40;99.90;;;;;;4996840;28;20129;-85
2021/09/15 03:15:30;;;;;;;14.40;8.00;;;15.40;99.90;;;;;;4996898;28;20501;-84
2021/09/15 03:17:57;;;;;;;7.68;6.97;;;15.40;99.90;;;;;;5014320;28;20050;-85
2021/09/15 03:20:24;;;;;;;12.15;7.75;;;15.40;99.90;;;;;;4996904;28;20053;-85
2021/09/15 03:22:50;;;;;;;17.77;8.60;;;15.40;99.90;;;;;;5014164;28;20081;-84
2021/09/15 03:25:17;;;;;;;8.25;7.45;;;15.30;99.90;;;;;;4996032;28;20058;-85
2021/09/15 03:27:44;;;;;;;9.35;7.90;;;15.20;99.90;;;;;;5014192;28;20053;-85
2021/09/15 03:30:15;;;;;;;12.00;7.60;;;15.20;99.90;;;;;;4997307;28;20081;-85
2021/09/15 03:32:42;;;;;;;12.52;7.07;;;15.10;99.90;;;;;;4996796;28;20100;-85
2021/09/15 03:35:09;;;;;;;8.48;7.43;;;15.10;99.90;;;;;;4996582;28;20418;-85
2021/09/15 03:37:36;;;;;;;8.93;6.93;;;15.00;99.90;;;;;;4996468;28;20475;-84
2021/09/15 03:40:04;;;;;;;12.07;7.35;;;15.00;99.90;;;;;;5013872;28;20085;-85
2021/09/15 03:42:31;;;;;;;8.82;7.40;;;15.00;99.90;;;;;;4996340;28;20383;-84
2021/09/15 03:44:58;;;;;;;8.45;7.10;;;14.90;99.90;;;;;;4996451;28;20060;-85
2021/09/15 03:47:24;;;;;;;7.88;7.18;;;14.80;99.90;;;;;;5013942;28;20048;-84
2021/09/15 03:49:51;;;;;;;9.88;7.43;;;14.70;99.90;;;;;;5013851;28;20541;-85
2021/09/15 03:52:18;;;;;;;7.93;7.22;;;14.70;99.90;;;;;;5013892;28;20068;-85
2021/09/15 03:54:45;;;;;;;9.93;8.07;;;14.60;99.90;;;;;;4996330;28;20418;-85
2021/09/15 03:57:11;;;;;;;11.07;8.18;;;14.60;99.90;;;;;;5013176;28;20060;-84
2021/09/15 03:59:38;;;;;;;9.88;7.85;;;14.50;99.90;;;;;;5013370;28;20483;-85
2021/09/15 04:02:05;;;;;;;11.63;8.27;;;14.50;99.90;;;;;;4996378;28;20045;-85
2021/09/15 04:04:32;;;;;;;14.00;9.07;;;14.40;99.90;;;;;;5013632;28;20053;-85
2021/09/15 04:06:59;;;;;;;9.30;7.88;;;14.40;99.90;;;;;;4996001;28;20056;-85
2021/09/15 04:09:26;;;;;;;10.55;8.10;;;14.40;99.90;;;;;;5013381;28;20049;-85
2021/09/15 04:11:52;;;;;;;10.68;8.27;;;14.40;99.90;;;;;;4996148;28;20045;-85
2021/09/15 04:14:19;;;;;;;9.13;8.10;;;14.30;99.90;;;;;;4996143;28;20060;-85
2021/09/15 04:16:46;;;;;;;12.80;7.90;;;14.30;99.90;;;;;;5013365;28;20042;-85
2021/09/15 04:19:12;;;;;;;13.50;9.02;;;14.20;99.90;;;;;;4996074;28;20054;-86
2021/09/15 04:21:40;;;;;;;10.25;8.35;;;14.10;99.90;;;;;;4996131;28;20052;-85
2021/09/15 04:32:11;;;;;;;13.35;9.05;;;14.10;99.90;;;;;;5013151;28;20050;-85
2021/09/15 04:34:37;;;;;;;20.70;10.18;;;14.20;99.90;;;;;;4995955;28;20079;-85
2021/09/15 04:37:04;;;;;;;14.05;9.48;;;14.00;99.90;;;;;;4997818;28;20388;-85
2021/09/15 04:39:31;;;;;;;15.93;11.13;;;13.90;99.90;;;;;;5002260;28;20056;-85
2021/09/15 04:41:58;;;;;;;11.57;10.38;;;13.90;99.90;;;;;;5019825;28;20134;-85
2021/09/15 04:44:24;;;;;;;11.38;10.20;;;13.90;99.90;;;;;;5019588;28;20046;-85
2021/09/15 04:46:51;;;;;;;11.32;9.70;;;14.00;99.90;;;;;;5001946;28;20042;-84
2021/09/15 04:49:18;;;;;;;16.00;10.85;;;14.00;99.90;;;;;;5019493;28;20058;-85
2021/09/15 04:51:44;;;;;;;11.45;10.27;;;14.10;99.90;;;;;;5019636;28;20060;-85
2021/09/15 04:54:11;;;;;;;14.98;11.52;;;14.10;99.90;;;;;;5019370;28;20052;-84
2021/09/15 04:56:38;;;;;;;12.60;10.65;;;14.20;99.90;;;;;;5002182;28;20140;-84
2021/09/15 04:59:04;;;;;;;15.73;11.10;;;14.20;99.90;;;;;;5001075;28;20050;-84
2021/09/15 05:01:31;;;;;;;13.43;10.27;;;14.10;99.90;;;;;;5001969;28;20059;-84
2021/09/15 05:03:58;;;;;;;13.32;10.43;;;14.20;99.90;;;;;;5002137;28;20049;-85
2021/09/15 05:06:25;;;;;;;13.82;10.20;;;14.20;99.90;;;;;;5002126;28;20141;-85
2021/09/15 05:08:51;;;;;;;12.60;10.38;;;14.20;99.90;;;;;;5002120;28;20591;-85
2021/09/15 05:11:18;;;;;;;14.77;10.10;;;14.30;99.90;;;;;;5019453;28;20058;-85
2021/09/15 05:13:45;;;;;;;12.63;9.63;;;14.30;99.90;;;;;;5019833;28;20080;-85
2021/09/15 05:16:12;;;;;;;11.73;10.48;;;14.40;99.90;;;;;;5002173;28;20077;-85
2021/09/15 05:18:38;;;;;;;12.13;10.15;;;14.40;99.90;;;;;;5019548;28;20054;-85
2021/09/15 05:21:06;;;;;;;14.38;11.05;;;14.50;99.90;;;;;;5002273;28;20056;-85
2021/09/15 05:23:33;;;;;;;13.90;10.55;;;14.60;99.90;;;;;;5019725;28;20046;-85
2021/09/15 05:25:59;;;;;;;11.80;10.10;;;14.70;99.90;;;;;;5002485;28;20081;-85
2021/09/15 05:28:26;;;;;;;10.90;9.90;;;14.70;99.90;;;;;;5019405;28;20050;-85
2021/09/15 05:30:53;;;;;;;10.38;9.38;;;14.80;99.90;;;;;;5018041;28;20053;-85
2021/09/15 05:33:19;;;;;;;13.15;8.80;;;14.90;99.90;;;;;;5019071;28;20085;-85
2021/09/15 05:35:46;;;;;;;15.38;8.45;;;15.10;99.90;;;;;;5001495;28;20132;-84
2021/09/15 05:38:13;;;;;;;7.95;7.25;;;15.10;99.90;;;;;;5001578;28;20064;-85
2021/09/15 05:40:40;;;;;;;10.93;7.93;;;15.20;99.90;;;;;;5001707;28;20418;-85
2021/09/15 05:43:06;;;;;;;10.48;6.63;;;15.20;99.90;;;;;;5018678;28;20061;-85
2021/09/15 05:45:33;;;;;;;10.25;6.90;;;15.30;99.90;;;;;;5001304;28;20056;-84
2021/09/15 05:48:00;;;;;;;7.20;6.15;;;15.40;99.90;;;;;;5000913;28;20049;-84
2021/09/15 05:50:26;;;;;;;9.10;6.57;;;15.50;99.90;;;;;;4997727;28;20140;-85
2021/09/15 05:52:53;;;;;;;8.07;6.50;;;15.50;99.90;;;;;;5015746;28;20153;-85
2021/09/15 05:55:20;;;;;;;8.07;6.80;;;15.50;99.90;;;;;;4998221;28;20056;-84
2021/09/15 05:57:51;;;;;;;7.43;6.72;;;15.60;99.90;;;;;;5015804;28;20045;-84
2021/09/15 06:00:18;;;;;;;7.35;6.68;;;15.60;99.90;;;;;;4998067;28;20054;-84
2021/09/15 06:02:55;;;;;;;7.65;6.90;;;15.60;99.90;;;;;;4999277;28;20057;-85
2021/09/15 06:05:22;;;;;;;7.32;6.72;;;15.60;99.90;;;;;;4998048;28;20594;-85
2021/09/15 06:07:49;;;;;;;8.60;6.20;;;15.60;99.90;;;;;;4998027;28;20050;-85
2021/09/15 06:10:17;;;;;;;8.63;7.00;;;15.70;99.90;;;;;;5015440;28;20081;-85
2021/09/15 06:12:43;;;;;;;6.90;6.18;;;15.70;99.90;;;;;;4998242;28;20054;-84
2021/09/15 06:15:10;;;;;;;7.78;6.45;;;15.70;99.90;;;;;;5015220;28;20046;-84
2021/09/15 06:17:37;;;;;;;6.85;6.25;;;15.80;99.90;;;;;;5015478;28;20088;-84
2021/09/15 06:20:04;;;;;;;7.20;6.50;;;15.80;99.90;;;;;;4997843;28;20096;-84
2021/09/15 06:22:31;;;;;;;7.63;6.78;;;15.90;99.90;;;;;;5015492;28;20437;-85
2021/09/15 06:24:59;;;;;;;9.38;5.90;;;15.90;99.90;;;;;;5015048;28;20057;-84
2021/09/15 06:27:26;;;;;;;8.45;5.90;;;15.80;99.90;;;;;;4997982;28;20045;-84
2021/09/15 06:29:52;;;;;;;9.38;6.32;;;15.90;99.90;;;;;;4997682;28;20053;-85
2021/09/15 06:32:21;;;;;;;7.78;5.93;;;15.90;99.90;;;;;;5014797;28;20053;-85
2021/09/15 06:34:48;;;;;;;15.55;12.43;;;15.90;99.90;;;;;;4997676;28;20053;-85
2021/09/15 06:37:15;;;;;;;24.05;19.15;;;15.90;99.90;;;;;;4997500;28;20517;-85
2021/09/15 06:39:42;;;;;;;74.70;64.35;;;15.90;99.90;;;;;;4997748;28;20050;-85
2021/09/15 06:42:11;;;;;;;55.22;46.90;;;15.90;99.90;;;;;;4997471;28;20046;-84
2021/09/15 06:44:38;;;;;;;34.67;30.98;;;15.90;99.90;;;;;;4997536;28;20046;-84
2021/09/15 06:47:05;;;;;;;25.33;21.27;;;16.00;99.90;;;;;;4997320;28;20096;-85
2021/09/15 06:49:32;;;;;;;23.75;21.08;;;15.90;99.90;;;;;;4997614;28;20081;-84
2021/09/15 06:51:59;;;;;;;7.43;6.82;;;16.00;99.90;;;;;;4997531;28;20054;-85
2021/09/15 06:54:26;;;;;;;7.15;6.00;;;16.00;99.90;;;;;;5002820;28;20049;-84
2021/09/15 06:56:53;;;;;;;9.93;7.20;;;16.00;99.90;;;;;;5024517;28;20041;-84
2021/09/15 06:59:20;;;;;;;11.30;6.65;;;16.00;99.90;;;;;;5029414;28;20056;-85
2021/09/15 07:01:46;;;;;;;11.75;8.40;;;16.00;99.90;;;;;;5048840;28;20053;-85
2021/09/15 07:04:13;;;;;;;12.52;9.50;;;16.00;99.90;;;;;;5016782;28;20049;-84
2021/09/15 07:06:40;;;;;;;11.35;8.82;;;16.00;99.90;;;;;;5033085;28;20111;-85
2021/09/15 07:09:08;;;;;;;10.23;7.55;;;16.00;99.90;;;;;;5048579;28;20055;-85
2021/09/15 07:11:35;;;;;;;9.98;7.97;;;16.00;99.90;;;;;;5016424;28;20501;-86
2021/09/15 07:14:05;;;;;;;17.75;9.30;;;16.00;99.90;;;;;;5015932;28;20041;-85
2021/09/15 07:16:32;;;;;;;15.63;8.10;;;15.90;99.90;;;;;;5032751;28;20056;-85
2021/09/15 07:19:00;;;;;;;13.85;8.43;;;16.00;99.90;;;;;;5033346;28;20516;-85
2021/09/15 07:21:26;;;;;;;13.07;8.13;;;16.00;99.90;;;;;;5016188;28;20049;-85
2021/09/15 07:23:53;;;;;;;11.68;7.68;;;16.10;99.90;;;;;;5016174;28;20080;-84
2021/09/15 07:26:20;;;;;;;22.67;9.32;;;16.10;99.90;;;;;;4998807;28;20058;-83
2021/09/15 07:28:47;;;;;;;13.70;8.00;;;16.00;99.90;;;;;;5013862;28;20053;-84
2021/09/15 07:31:14;;;;;;;12.30;8.57;;;16.10;99.90;;;;;;4996262;28;20077;-85
2021/09/15 07:33:41;;;;;;;13.93;8.23;;;16.00;99.90;;;;;;5013841;28;20057;-85
2021/09/15 07:36:08;;;;;;;16.55;8.07;;;16.10;99.90;;;;;;4996404;28;20046;-85
2021/09/15 07:38:36;;;;;;;11.48;7.50;;;16.20;99.90;;;;;;4996195;28;20046;-85
2021/09/15 07:41:03;;;;;;;17.10;9.63;;;16.20;99.90;;;;;;4995588;28;20548;-84
2021/09/15 07:43:30;;;;;;;12.57;9.13;;;16.30;99.90;;;;;;5014052;28;20041;-85
2021/09/15 07:45:57;;;;;;;22.38;12.98;;;16.30;99.90;;;;;;4995935;28;20050;-85
2021/09/15 07:48:24;;;;;;;14.70;11.68;;;16.40;99.90;;;;;;5013933;28;20075;-85
2021/09/15 07:50:51;;;;;;;62.90;12.55;;;16.40;99.90;;;;;;4996416;28;20048;-85
2021/09/15 07:53:18;;;;;;;34.90;11.55;;;16.30;99.90;;;;;;4994989;28;20514;-84
2021/09/15 07:55:45;;;;;;;32.92;11.07;;;16.30;99.90;;;;;;4994600;28;20046;-85
2021/09/15 07:58:12;;;;;;;18.55;10.60;;;16.30;99.90;;;;;;4994685;28;20081;-85
2021/09/15 08:00:39;;;;;;;25.13;10.48;;;16.40;99.90;;;;;;5011489;28;20064;-85
2021/09/15 08:03:06;;;;;;;19.02;9.88;;;16.40;99.90;;;;;;4994184;28;20050;-85
2021/09/15 08:05:32;;;;;;;31.52;10.90;;;16.50;99.90;;;;;;5011803;28;20491;-85
2021/09/15 08:08:01;;;;;;;31.25;10.88;;;16.50;99.90;;;;;;4996326;28;20478;-86
2021/09/15 08:10:28;;;;;;;33.45;12.35;;;16.50;99.90;;;;;;4996291;28;20057;-86
2021/09/15 08:12:55;;;;;;;23.88;10.70;;;16.50;99.90;;;;;;5013466;28;20056;-87
2021/09/15 08:15:27;;;;;;;18.85;10.05;;;16.50;99.90;;;;;;4996982;28;20439;-87
2021/09/15 08:17:53;;;;;;;19.30;11.38;;;16.40;99.90;;;;;;4996569;28;20045;-88
2021/09/15 08:20:20;;;;;;;11.50;10.00;;;16.50;99.90;;;;;;5013632;28;20070;-87
2021/09/15 08:22:47;;;;;;;12.65;10.20;;;16.60;99.90;;;;;;4996771;28;20134;-87
2021/09/15 08:25:14;;;;;;;14.05;9.63;;;16.60;99.90;;;;;;4996593;28;20049;-88
2021/09/15 08:27:41;;;;;;;12.90;10.63;;;16.70;99.90;;;;;;4996598;28;20101;-88
2021/09/15 08:30:09;;;;;;;17.85;11.68;;;16.80;99.90;;;;;;5013602;28;20064;-87
2021/09/15 08:32:36;;;;;;;13.02;10.00;;;16.90;99.90;;;;;;4996544;28;20045;-88
2021/09/15 08:35:04;;;;;;;13.82;10.43;;;16.90;99.90;;;;;;4996397;28;20053;-90
2021/09/15 08:37:35;;;;;;;10.88;9.73;;;17.00;99.90;;;;;;4996869;28;20363;-90
2021/09/15 08:40:05;;;;;;;13.10;9.85;;;17.00;99.90;;;;;;4996599;28;20119;-91
2021/09/15 08:42:32;;;;;;;13.23;11.13;;;17.00;99.90;;;;;;4996719;28;20136;-90
2021/09/15 08:45:07;;;;;;;14.77;10.25;;;17.10;99.90;;;;;;5013575;28;20058;-89
2021/09/15 08:47:36;;;;;;;13.57;9.77;;;17.30;99.90;;;;;;4996571;28;20048;-90
2021/09/15 08:50:05;;;;;;;16.85;9.98;;;17.40;99.90;;;;;;4996398;28;20069;-90
2021/09/15 08:52:32;;;;;;;15.13;10.85;;;17.50;99.90;;;;;;4996312;28;20052;-87
2021/09/15 08:54:59;;;;;;;14.48;10.85;;;17.70;99.90;;;;;;5013415;28;20053;-89
2021/09/15 08:57:31;;;;;;;14.05;10.60;;;17.80;99.90;;;;;;5013872;28;20057;-89
2021/09/15 08:59:58;;;;;;;16.40;11.43;;;17.80;99.90;;;;;;4996666;28;20061;-88
2021/09/15 09:02:33;;;;;;;19.23;9.98;;;18.00;99.90;;;;;;4996542;28;20056;-87
2021/09/15 09:05:01;;;;;;;14.50;9.73;;;18.20;99.90;;;;;;4996290;28;20081;-85
2021/09/15 09:07:29;;;;;;;11.85;8.65;;;18.50;99.90;;;;;;5013381;28;20084;-87
2021/09/15 09:09:59;;;;;;;11.65;8.40;;;18.70;99.90;;;;;;4996425;28;20550;-86
2021/09/15 09:12:28;;;;;;;9.68;8.02;;;19.00;99.90;;;;;;4996431;28;20058;-85
2021/09/15 09:15:30;;;;;;;12.73;7.63;;;19.20;99.90;;;;;;4996059;28;20050;-84
2021/09/15 09:17:59;;;;;;;14.23;7.45;;;19.40;99.90;;;;;;4956415;28;20142;-84
2021/09/15 09:20:30;;;;;;;11.32;6.65;;;19.60;99.90;;;;;;5005570;28;20450;-85
2021/09/15 09:23:15;;;;;;;11.98;7.65;;;20.00;99.90;;;;;;4995889;28;20153;-84
2021/09/15 09:25:58;;;;;;;13.95;7.28;;;20.30;99.90;;;;;;4999519;28;20060;-85
2021/09/15 09:28:40;;;;;;;5.82;5.28;;;20.80;99.90;;;;;;5001098;28;20046;-84
2021/09/15 09:31:09;;;;;;;9.63;5.68;;;21.10;99.90;;;;;;4999603;28;20129;-84
2021/09/15 09:33:36;;;;;;;7.82;5.82;;;21.30;99.90;;;;;;4999709;28;20052;-84
2021/09/15 09:36:07;;;;;;;6.20;5.30;;;21.00;99.90;;;;;;4999412;28;20053;-84
2021/09/15 09:38:39;;;;;;;7.28;5.95;;;21.00;99.90;;;;;;4999472;28;20122;-83
2021/09/15 09:41:09;;;;;;;6.22;5.63;;;20.90;99.90;;;;;;5016362;28;20049;-83
2021/09/15 09:43:39;;;;;;;7.50;5.93;;;20.90;99.90;;;;;;5016590;28;20401;-83
2021/09/15 09:46:08;;;;;;;5.47;5.07;;;20.80;99.90;;;;;;4999162;28;20145;-84
2021/09/15 09:48:43;;;;;;;7.85;5.95;;;20.80;99.90;;;;;;5016665;28;20042;-83
2021/09/15 09:51:32;;;;;;;7.43;6.75;;;20.60;99.90;;;;;;5016164;28;20513;-83
2021/09/15 09:54:18;;;;;;;10.13;6.82;;;20.60;99.90;;;;;;4999113;28;20191;-84
2021/09/15 09:56:48;;;;;;;7.57;6.85;;;20.40;99.90;;;;;;5016413;28;20054;-83
2021/09/15 09:59:15;;;;;;;11.80;7.32;;;20.50;99.90;;;;;;4998682;28;20046;-83
2021/09/15 10:01:53;;;;;;;8.05;6.72;;;20.60;99.90;;;;;;4999015;28;20388;-84
2021/09/15 10:04:21;;;;;;;9.77;7.40;;;20.80;99.90;;;;;;4998928;28;20096;-84
2021/09/15 10:06:48;;;;;;;7.57;6.75;;;21.00;99.90;;;;;;4998687;28;20499;-83
2021/09/15 10:09:15;;;;;;;16.15;8.15;;;21.00;99.90;;;;;;4998990;28;20126;-83
2021/09/15 10:11:43;;;;;;;13.25;8.05;;;20.70;99.90;;;;;;5015903;28;20046;-83
2021/09/15 10:14:14;;;;;;;10.27;6.80;;;20.60;99.90;;;;;;4998280;28;20466;-83
2021/09/15 10:16:45;;;;;;;11.00;6.70;;;20.80;99.90;;;;;;4998588;28;20056;-83
2021/09/15 10:19:15;;;;;;;7.55;6.57;;;20.90;99.90;;;;;;4998206;28;20081;-83
2021/09/15 10:21:41;;;;;;;7.10;6.40;;;21.00;99.90;;;;;;4998456;28;20058;-83
2021/09/15 10:24:08;;;;;;;6.63;6.03;;;21.20;99.90;;;;;;4998240;28;20129;-83
2021/09/15 10:26:41;;;;;;;7.55;6.85;;;21.20;99.90;;;;;;5015304;28;20060;-83
2021/09/15 10:29:28;;;;;;;6.57;6.07;;;21.30;99.90;;;;;;4998368;28;20413;-83
2021/09/15 10:32:05;;;;;;;6.78;5.70;;;21.60;99.90;;;;;;4998244;28;20046;-83
2021/09/15 10:34:41;;;;;;;5.93;5.43;;;22.00;99.90;;;;;;5015285;28;20384;-83
2021/09/15 10:37:11;;;;;;;10.50;5.88;;;23.50;99.90;;;;;;5015155;28;20053;-83
2021/09/15 10:40:00;;;;;;;5.40;4.90;;;24.60;99.90;;;;;;5015233;28;20053;-83
2021/09/15 10:42:46;;;;;;;5.82;5.30;;;26.40;99.90;;;;;;4997946;28;20435;-83
2021/09/15 10:45:23;;;;;;;4.28;3.88;;;26.70;99.90;;;;;;4997702;28;20064;-83
2021/09/15 10:47:53;;;;;;;13.23;6.32;;;26.80;99.90;;;;;;4997986;28;20085;-83
2021/09/15 10:50:28;;;;;;;15.55;6.80;;;25.90;99.90;;;;;;4998866;28;20054;-83
2021/09/15 10:53:07;;;;;;;9.45;5.25;;;24.60;99.90;;;;;;5014906;28;20050;-83
2021/09/15 10:55:42;;;;;;;5.50;4.97;;;24.30;99.90;;;;;;4997785;28;20056;-83
2021/09/15 10:58:11;;;;;;;10.07;5.55;;;24.40;99.90;;;;;;4997533;28;20081;-83
2021/09/15 11:00:48;;;;;;;12.30;6.22;;;24.20;99.90;;;;;;5014782;28;20045;-83
2021/09/15 11:03:31;;;;;;;11.20;5.93;;;23.90;99.90;;;;;;4997428;28;20058;-83
2021/09/15 11:06:20;;;;;;;5.22;4.32;;;23.70;99.90;;;;;;4997342;28;20053;-83
2021/09/15 11:08:54;;;;;;;7.40;3.67;;;23.90;99.90;;;;;;4997268;28;20148;-82
2021/09/15 11:11:21;;;;;;;6.13;3.90;;;24.00;99.90;;;;;;5014728;28;20068;-82
2021/09/15 11:13:56;;;;;;;4.65;3.80;;;23.70;99.90;;;;;;4997204;28;20052;-83
2021/09/15 11:16:23;;;;;;;5.45;3.85;;;23.80;99.90;;;;;;4996979;28;20091;-83
2021/09/15 11:18:54;;;;;;;5.57;3.35;;;24.00;99.90;;;;;;4997179;28;20054;-82
2021/09/15 11:21:22;;;;;;;5.70;3.83;;;23.80;99.90;;;;;;5014336;28;20405;-84
2021/09/15 11:23:57;;;;;;;4.40;3.25;;;23.70;99.90;;;;;;4997341;28;20046;-83
2021/09/15 11:26:42;;;;;;;5.10;3.40;;;23.40;99.90;;;;;;4997019;28;20441;-83
2021/09/15 11:29:09;;;;;;;5.15;2.97;;;23.20;99.90;;;;;;5014528;28;20137;-84
2021/09/15 11:31:37;;;;;;;4.85;3.00;;;22.70;99.90;;;;;;5014758;28;20125;-87
2021/09/15 11:34:09;;;;;;;3.63;3.15;;;22.70;99.90;;;;;;4997219;28;20052;-84
2021/09/15 11:36:37;;;;;;;3.50;3.20;;;22.60;99.90;;;;;;4997263;28;20065;-83
2021/09/15 11:39:07;;;;;;;3.95;2.70;;;22.30;99.90;;;;;;4997000;28;20129;-84
2021/09/15 11:41:33;;;;;;;3.13;2.83;;;22.30;99.90;;;;;;5014250;28;20050;-83
2021/09/15 11:44:00;;;;;;;7.82;3.00;;;22.20;99.90;;;;;;4996749;28;20046;-83
2021/09/15 11:46:33;;;;;;;3.08;2.33;;;22.30;99.90;;;;;;4996267;28;20478;-84
2021/09/15 11:49:00;;;;;;;4.78;2.70;;;22.50;99.90;;;;;;4996730;28;20137;-83
2021/09/15 11:51:31;;;;;;;3.88;2.30;;;22.50;99.90;;;;;;4996896;28;20053;-83
2021/09/15 11:54:12;;;;;;;3.10;2.53;;;22.40;99.90;;;;;;5014164;28;20056;-84
2021/09/15 11:56:51;;;;;;;6.68;2.35;;;22.30;99.90;;;;;;4996418;28;20054;-83
2021/09/15 11:59:19;;;;;;;4.28;2.38;;;22.20;99.90;;;;;;5014101;28;20054;-83
2021/09/15 12:02:03;;;;;;;2.75;2.28;;;22.10;99.90;;;;;;4998792;28;20085;-84
2021/09/15 12:04:33;;;;;;;2.30;2.10;;;22.30;99.90;;;;;;5014076;28;20050;-83
2021/09/15 12:07:01;;;;;;;2.55;2.03;;;22.40;99.90;;;;;;4996549;28;20057;-84
2021/09/15 12:09:30;;;;;;;4.05;2.33;;;22.60;99.90;;;;;;4996724;28;20487;-83
2021/09/15 12:11:58;;;;;;;2.50;2.08;;;22.70;99.90;;;;;;4996719;28;20132;-84
2021/09/15 12:14:32;;;;;;;5.32;2.15;;;23.10;99.90;;;;;;4996514;28;20053;-84
2021/09/15 12:17:01;;;;;;;1.85;1.75;;;23.70;99.90;;;;;;5013772;28;20073;-83
2021/09/15 12:19:28;;;;;;;3.85;2.53;;;24.20;99.90;;;;;;4996537;28;20478;-83
2021/09/15 12:21:55;;;;;;;3.97;1.92;;;24.40;99.90;;;;;;4996544;28;20057;-84
2021/09/15 12:24:23;;;;;;;2.67;1.80;;;24.30;99.90;;;;;;5013606;28;20475;-83
2021/09/15 12:26:49;;;;;;;3.75;2.20;;;24.50;99.90;;;;;;5013579;28;20054;-84
2021/09/15 12:29:18;;;;;;;5.32;2.67;;;24.50;99.90;;;;;;5013184;28;20133;-84
2021/09/15 12:31:49;;;;;;;2.72;2.38;;;24.50;99.90;;;;;;4996275;28;20059;-84
2021/09/15 12:34:39;;;;;;;6.38;2.33;;;24.10;99.90;;;;;;5013628;28;20056;-83
2021/09/15 12:37:12;;;;;;;24.80;8.13;;;23.80;99.90;;;;;;4996012;28;20073;-84
2021/09/15 12:39:55;;;;;;;8.13;3.70;;;23.50;99.90;;;;;;4996280;28;20410;-83
2021/09/15 12:42:27;;;;;;;3.38;2.55;;;23.20;99.90;;;;;;4996075;28;20050;-83
2021/09/15 12:45:11;;;;;;;2.75;2.55;;;23.20;99.90;;;;;;4996100;28;20050;-83
2021/09/15 12:47:40;;;;;;;3.63;2.45;;;23.40;99.90;;;;;;5013390;28;20502;-83
2021/09/15 12:50:23;;;;;;;3.20;2.40;;;23.60;99.90;;;;;;5013164;28;20070;-83
2021/09/15 12:53:10;;;;;;;2.97;2.50;;;24.00;99.90;;;;;;5013715;28;20487;-84
2021/09/15 12:55:44;;;;;;;4.90;2.70;;;23.90;99.90;;;;;;4996058;28;20394;-83
2021/09/15 12:58:23;;;;;;;5.10;2.60;;;24.10;99.90;;;;;;5014700;28;20052;-82